sensor_id;sensor_type;location;lat;lon;timestamp;pressure;altitude;pressure_sealevel;temperature;humidity
23321;BME280;33376;51.306;4.752;2024-01-30T00:00:28;102678.78;;;12.06;nan
23321;BME280;33376;51.306;4.752;2024-01-30T00:02:54;102681.06;;;12.44;nan
23321;BME280;33376;51.306;4.752;2024-01-30T00:05:19;102645.16;;;12.56;nan
23321;BME280;33376;51.306;4.752;2024-01-30T00:07:45;102631.59;;;12.88;nan
23321;BME280;33376;51.306;4.752;2024-01-30T00:10:10;102623.66;;;12.86;nan
23321;BME280;33376;51.306;4.752;2024-01-30T00:12:35;102632.59;;;12.85;nan
23321;BME280;33376;51.306;4.752;2024-01-30T00:15:00;102625.09;;;12.72;nan
23321;BME280;33376;51.306;4.752;2024-01-30T00:17:26;102659.00;;;12.41;nan
23321;BME280;33376;51.306;4.752;2024-01-30T00:19:51;102639.94;;;12.79;nan
23321;BME280;33376;51.306;4.752;2024-01-30T00:22:17;102594.03;;;13.20;nan
23321;BME280;33376;51.306;4.752;2024-01-30T00:24:42;102589.06;;;13.11;nan
23321;BME280;33376;51.306;4.752;2024-01-30T00:27:08;102615.38;;;12.71;nan
23321;BME280;33376;51.306;4.752;2024-01-30T00:29:33;102585.88;;;12.77;nan
23321;BME280;33376;51.306;4.752;2024-01-30T00:31:59;102573.56;;;13.22;nan
23321;BME280;33376;51.306;4.752;2024-01-30T00:34:25;102572.50;;;13.49;nan
23321;BME280;33376;51.306;4.752;2024-01-30T00:36:50;102581.72;;;13.17;nan
23321;BME280;33376;51.306;4.752;2024-01-30T00:39:15;102594.44;;;13.33;nan
23321;BME280;33376;51.306;4.752;2024-01-30T00:41:41;102611.25;;;13.11;nan
23321;BME280;33376;51.306;4.752;2024-01-30T00:44:06;102577.94;;;13.23;nan
23321;BME280;33376;51.306;4.752;2024-01-30T00:46:31;102574.19;;;13.29;nan
23321;BME280;33376;51.306;4.752;2024-01-30T00:48:57;102585.53;;;13.10;nan
23321;BME280;33376;51.306;4.752;2024-01-30T00:51:22;102571.91;;;13.18;nan
23321;BME280;33376;51.306;4.752;2024-01-30T00:53:47;102580.22;;;13.10;nan
23321;BME280;33376;51.306;4.752;2024-01-30T00:56:13;102593.88;;;13.24;nan
23321;BME280;33376;51.306;4.752;2024-01-30T00:58:38;102568.56;;;13.36;nan
23321;BME280;33376;51.306;4.752;2024-01-30T01:01:04;102542.91;;;13.55;nan
23321;BME280;33376;51.306;4.752;2024-01-30T01:03:30;102496.69;;;13.98;nan
23321;BME280;33376;51.306;4.752;2024-01-30T01:05:55;102508.94;;;13.82;nan
23321;BME280;33376;51.306;4.752;2024-01-30T01:08:20;102483.13;;;14.04;nan
23321;BME280;33376;51.306;4.752;2024-01-30T01:10:46;102466.63;;;14.14;nan
23321;BME280;33376;51.306;4.752;2024-01-30T01:13:11;102445.16;;;14.17;nan
23321;BME280;33376;51.306;4.752;2024-01-30T01:15:36;102472.03;;;14.13;nan
23321;BME280;33376;51.306;4.752;2024-01-30T01:18:02;102501.19;;;13.76;nan
23321;BME280;33376;51.306;4.752;2024-01-30T01:20:27;102513.97;;;13.46;nan
23321;BME280;33376;51.306;4.752;2024-01-30T01:22:53;102542.97;;;13.32;nan
23321;BME280;33376;51.306;4.752;2024-01-30T01:25:18;102521.66;;;13.32;nan
23321;BME280;33376;51.306;4.752;2024-01-30T01:27:43;102548.56;;;13.24;nan
23321;BME280;33376;51.306;4.752;2024-01-30T01:30:16;102567.16;;;12.78;nan
23321;BME280;33376;51.306;4.752;2024-01-30T01:32:46;102525.69;;;13.42;nan
23321;BME280;33376;51.306;4.752;2024-01-30T01:35:15;102513.84;;;13.49;nan
23321;BME280;33376;51.306;4.752;2024-01-30T01:37:41;102460.78;;;13.86;nan
23321;BME280;33376;51.306;4.752;2024-01-30T01:40:06;102429.56;;;14.28;nan
23321;BME280;33376;51.306;4.752;2024-01-30T01:42:32;102409.34;;;14.03;nan
23321;BME280;33376;51.306;4.752;2024-01-30T01:44:57;102429.47;;;13.90;nan
23321;BME280;33376;51.306;4.752;2024-01-30T01:47:22;102455.75;;;13.79;nan
23321;BME280;33376;51.306;4.752;2024-01-30T01:49:48;102493.72;;;13.64;nan
23321;BME280;33376;51.306;4.752;2024-01-30T01:52:13;102462.84;;;13.58;nan
23321;BME280;33376;51.306;4.752;2024-01-30T01:54:38;102482.00;;;13.46;nan
23321;BME280;33376;51.306;4.752;2024-01-30T01:57:04;102520.34;;;13.20;nan
23321;BME280;33376;51.306;4.752;2024-01-30T01:59:29;102468.34;;;13.75;nan
23321;BME280;33376;51.306;4.752;2024-01-30T02:01:55;102437.56;;;14.28;nan
23321;BME280;33376;51.306;4.752;2024-01-30T02:04:20;102371.84;;;14.64;nan
23321;BME280;33376;51.306;4.752;2024-01-30T02:06:46;102363.75;;;14.47;nan
23321;BME280;33376;51.306;4.752;2024-01-30T02:09:11;102425.75;;;14.14;nan
23321;BME280;33376;51.306;4.752;2024-01-30T02:11:36;102362.81;;;14.67;nan
23321;BME280;33376;51.306;4.752;2024-01-30T02:14:02;102403.81;;;14.07;nan
23321;BME280;33376;51.306;4.752;2024-01-30T02:16:28;102406.44;;;14.09;nan
23321;BME280;33376;51.306;4.752;2024-01-30T02:18:53;102440.47;;;13.62;nan
23321;BME280;33376;51.306;4.752;2024-01-30T02:21:19;102373.91;;;14.39;nan
23321;BME280;33376;51.306;4.752;2024-01-30T02:23:44;102402.44;;;13.99;nan
23321;BME280;33376;51.306;4.752;2024-01-30T02:26:11;102394.75;;;14.11;nan
23321;BME280;33376;51.306;4.752;2024-01-30T02:28:37;102451.19;;;13.61;nan
23321;BME280;33376;51.306;4.752;2024-01-30T02:31:02;102421.81;;;13.62;nan
23321;BME280;33376;51.306;4.752;2024-01-30T02:33:27;102487.78;;;12.89;nan
23321;BME280;33376;51.306;4.752;2024-01-30T02:35:52;102442.72;;;13.51;nan
23321;BME280;33376;51.306;4.752;2024-01-30T02:38:18;102450.41;;;13.15;nan
23321;BME280;33376;51.306;4.752;2024-01-30T02:40:43;102424.06;;;13.71;nan
23321;BME280;33376;51.306;4.752;2024-01-30T02:43:09;102420.91;;;13.42;nan
23321;BME280;33376;51.306;4.752;2024-01-30T02:45:34;102373.34;;;14.13;nan
23321;BME280;33376;51.306;4.752;2024-01-30T02:47:59;102403.84;;;13.67;nan
23321;BME280;33376;51.306;4.752;2024-01-30T02:50:24;102392.50;;;13.41;nan
23321;BME280;33376;51.306;4.752;2024-01-30T02:52:50;102344.84;;;14.33;nan
23321;BME280;33376;51.306;4.752;2024-01-30T02:55:15;102336.72;;;14.16;nan
23321;BME280;33376;51.306;4.752;2024-01-30T02:57:43;102373.03;;;13.60;nan
23321;BME280;33376;51.306;4.752;2024-01-30T03:00:08;102393.31;;;13.43;nan
23321;BME280;33376;51.306;4.752;2024-01-30T03:02:34;102494.19;;;12.61;nan
23321;BME280;33376;51.306;4.752;2024-01-30T03:05:00;102486.50;;;12.99;nan
23321;BME280;33376;51.306;4.752;2024-01-30T03:07:25;102468.31;;;13.34;nan
23321;BME280;33376;51.306;4.752;2024-01-30T03:09:50;102460.53;;;13.06;nan
23321;BME280;33376;51.306;4.752;2024-01-30T03:12:16;102512.09;;;13.05;nan
23321;BME280;33376;51.306;4.752;2024-01-30T03:14:41;102487.56;;;12.95;nan
23321;BME280;33376;51.306;4.752;2024-01-30T03:17:06;102535.53;;;12.46;nan
23321;BME280;33376;51.306;4.752;2024-01-30T03:19:32;102533.09;;;12.88;nan
23321;BME280;33376;51.306;4.752;2024-01-30T03:21:57;102511.97;;;12.83;nan
23321;BME280;33376;51.306;4.752;2024-01-30T03:24:22;102488.38;;;13.42;nan
23321;BME280;33376;51.306;4.752;2024-01-30T03:26:48;102498.16;;;13.20;nan
23321;BME280;33376;51.306;4.752;2024-01-30T03:29:13;102446.28;;;13.72;nan
23321;BME280;33376;51.306;4.752;2024-01-30T03:31:38;102394.88;;;14.28;nan
23321;BME280;33376;51.306;4.752;2024-01-30T03:34:04;102491.22;;;13.38;nan
23321;BME280;33376;51.306;4.752;2024-01-30T03:36:29;102473.41;;;13.81;nan
23321;BME280;33376;51.306;4.752;2024-01-30T03:38:57;102478.06;;;13.55;nan
23321;BME280;33376;51.306;4.752;2024-01-30T03:41:23;102470.94;;;13.12;nan
23321;BME280;33376;51.306;4.752;2024-01-30T03:43:48;102569.59;;;12.86;nan
23321;BME280;33376;51.306;4.752;2024-01-30T03:46:13;102629.94;;;11.81;nan
23321;BME280;33376;51.306;4.752;2024-01-30T03:48:39;102709.41;;;11.29;nan
23321;BME280;33376;51.306;4.752;2024-01-30T03:51:04;102703.72;;;11.73;nan
23321;BME280;33376;51.306;4.752;2024-01-30T03:53:30;102670.63;;;11.83;nan
23321;BME280;33376;51.306;4.752;2024-01-30T03:55:55;102542.63;;;13.18;nan
23321;BME280;33376;51.306;4.752;2024-01-30T03:58:20;102454.97;;;13.77;nan
23321;BME280;33376;51.306;4.752;2024-01-30T04:00:45;102481.00;;;13.49;nan
23321;BME280;33376;51.306;4.752;2024-01-30T04:03:11;102581.75;;;12.18;nan
23321;BME280;33376;51.306;4.752;2024-01-30T04:05:36;102625.09;;;11.94;nan
23321;BME280;33376;51.306;4.752;2024-01-30T04:08:01;102622.00;;;12.07;nan
23321;BME280;33376;51.306;4.752;2024-01-30T04:10:27;102461.25;;;13.54;nan
23321;BME280;33376;51.306;4.752;2024-01-30T04:12:52;102451.06;;;13.64;nan
23321;BME280;33376;51.306;4.752;2024-01-30T04:15:18;102444.50;;;13.51;nan
23321;BME280;33376;51.306;4.752;2024-01-30T04:17:44;102421.53;;;13.68;nan
23321;BME280;33376;51.306;4.752;2024-01-30T04:20:13;102520.91;;;12.82;nan
23321;BME280;33376;51.306;4.752;2024-01-30T04:22:38;102531.78;;;12.76;nan
23321;BME280;33376;51.306;4.752;2024-01-30T04:25:04;102496.81;;;13.32;nan
23321;BME280;33376;51.306;4.752;2024-01-30T04:27:29;102466.63;;;13.09;nan
23321;BME280;33376;51.306;4.752;2024-01-30T04:29:54;102424.94;;;13.92;nan
23321;BME280;33376;51.306;4.752;2024-01-30T04:32:19;102460.75;;;13.00;nan
23321;BME280;33376;51.306;4.752;2024-01-30T04:34:45;102475.31;;;13.14;nan
23321;BME280;33376;51.306;4.752;2024-01-30T04:37:10;102484.59;;;12.80;nan
23321;BME280;33376;51.306;4.752;2024-01-30T04:39:35;102472.56;;;12.93;nan
23321;BME280;33376;51.306;4.752;2024-01-30T04:42:02;102459.50;;;13.32;nan
23321;BME280;33376;51.306;4.752;2024-01-30T04:44:27;102533.69;;;12.73;nan
23321;BME280;33376;51.306;4.752;2024-01-30T04:46:54;102480.50;;;13.39;nan
23321;BME280;33376;51.306;4.752;2024-01-30T04:49:26;102493.28;;;12.85;nan
23321;BME280;33376;51.306;4.752;2024-01-30T04:51:51;102493.91;;;12.91;nan
23321;BME280;33376;51.306;4.752;2024-01-30T04:54:16;102468.88;;;13.42;nan
23321;BME280;33376;51.306;4.752;2024-01-30T04:56:42;102436.72;;;13.66;nan
23321;BME280;33376;51.306;4.752;2024-01-30T04:59:07;102451.16;;;13.19;nan
23321;BME280;33376;51.306;4.752;2024-01-30T05:01:33;102475.00;;;13.22;nan
23321;BME280;33376;51.306;4.752;2024-01-30T05:03:58;102448.25;;;13.47;nan
23321;BME280;33376;51.306;4.752;2024-01-30T05:06:27;102441.97;;;13.89;nan
23321;BME280;33376;51.306;4.752;2024-01-30T05:08:52;102438.03;;;13.78;nan
23321;BME280;33376;51.306;4.752;2024-01-30T05:11:18;102439.59;;;13.82;nan
23321;BME280;33376;51.306;4.752;2024-01-30T05:13:43;102456.69;;;13.78;nan
23321;BME280;33376;51.306;4.752;2024-01-30T05:16:08;102476.34;;;13.54;nan
23321;BME280;33376;51.306;4.752;2024-01-30T05:18:33;102451.00;;;13.85;nan
23321;BME280;33376;51.306;4.752;2024-01-30T05:20:59;102481.84;;;13.71;nan
23321;BME280;33376;51.306;4.752;2024-01-30T05:23:24;102480.75;;;13.55;nan
23321;BME280;33376;51.306;4.752;2024-01-30T05:25:50;102492.66;;;13.46;nan
23321;BME280;33376;51.306;4.752;2024-01-30T05:28:15;102450.97;;;14.07;nan
23321;BME280;33376;51.306;4.752;2024-01-30T05:30:40;102405.16;;;14.37;nan
23321;BME280;33376;51.306;4.752;2024-01-30T05:33:05;102414.53;;;14.46;nan
23321;BME280;33376;51.306;4.752;2024-01-30T05:35:31;102435.63;;;14.12;nan
23321;BME280;33376;51.306;4.752;2024-01-30T05:37:56;102414.38;;;14.30;nan
23321;BME280;33376;51.306;4.752;2024-01-30T05:40:22;102418.63;;;14.34;nan
23321;BME280;33376;51.306;4.752;2024-01-30T05:42:48;102416.47;;;14.42;nan
23321;BME280;33376;51.306;4.752;2024-01-30T05:45:13;102430.66;;;14.24;nan
23321;BME280;33376;51.306;4.752;2024-01-30T05:47:38;102456.09;;;14.11;nan
23321;BME280;33376;51.306;4.752;2024-01-30T05:50:04;102434.56;;;14.16;nan
23321;BME280;33376;51.306;4.752;2024-01-30T05:52:29;102463.34;;;14.29;nan
23321;BME280;33376;51.306;4.752;2024-01-30T05:54:54;102462.53;;;14.27;nan
23321;BME280;33376;51.306;4.752;2024-01-30T05:57:20;102457.19;;;14.27;nan
23321;BME280;33376;51.306;4.752;2024-01-30T05:59:45;102460.69;;;14.29;nan
23321;BME280;33376;51.306;4.752;2024-01-30T06:02:13;102474.66;;;13.94;nan
23321;BME280;33376;51.306;4.752;2024-01-30T06:04:38;102458.06;;;14.28;nan
23321;BME280;33376;51.306;4.752;2024-01-30T06:07:03;102468.53;;;14.32;nan
23321;BME280;33376;51.306;4.752;2024-01-30T06:09:30;102462.53;;;14.27;nan
23321;BME280;33376;51.306;4.752;2024-01-30T06:11:55;102443.13;;;14.62;nan
23321;BME280;33376;51.306;4.752;2024-01-30T06:14:21;102456.63;;;14.39;nan
23321;BME280;33376;51.306;4.752;2024-01-30T06:16:46;102485.97;;;13.99;nan
23321;BME280;33376;51.306;4.752;2024-01-30T06:19:11;102512.47;;;14.04;nan
23321;BME280;33376;51.306;4.752;2024-01-30T06:21:36;102475.25;;;14.41;nan
23321;BME280;33376;51.306;4.752;2024-01-30T06:24:03;102462.25;;;14.53;nan
23321;BME280;33376;51.306;4.752;2024-01-30T06:26:28;102506.22;;;14.25;nan
23321;BME280;33376;51.306;4.752;2024-01-30T06:28:53;102519.44;;;14.06;nan
23321;BME280;33376;51.306;4.752;2024-01-30T06:31:19;102515.53;;;14.15;nan
23321;BME280;33376;51.306;4.752;2024-01-30T06:33:46;102499.53;;;14.35;nan
23321;BME280;33376;51.306;4.752;2024-01-30T06:36:11;102489.84;;;14.73;nan
23321;BME280;33376;51.306;4.752;2024-01-30T06:38:36;102475.41;;;14.95;nan
23321;BME280;33376;51.306;4.752;2024-01-30T06:41:02;102518.00;;;14.19;nan
23321;BME280;33376;51.306;4.752;2024-01-30T06:43:27;102521.78;;;14.35;nan
23321;BME280;33376;51.306;4.752;2024-01-30T06:45:52;102496.38;;;14.65;nan
23321;BME280;33376;51.306;4.752;2024-01-30T06:48:18;102489.63;;;14.77;nan
23321;BME280;33376;51.306;4.752;2024-01-30T06:50:43;102505.34;;;14.64;nan
23321;BME280;33376;51.306;4.752;2024-01-30T06:53:08;102518.56;;;14.47;nan
23321;BME280;33376;51.306;4.752;2024-01-30T06:55:33;102519.72;;;14.42;nan
23321;BME280;33376;51.306;4.752;2024-01-30T06:57:59;102501.56;;;14.50;nan
23321;BME280;33376;51.306;4.752;2024-01-30T07:00:24;102535.91;;;14.57;nan
23321;BME280;33376;51.306;4.752;2024-01-30T07:02:49;102557.59;;;14.30;nan
23321;BME280;33376;51.306;4.752;2024-01-30T07:05:14;102545.66;;;14.17;nan
23321;BME280;33376;51.306;4.752;2024-01-30T07:07:40;102549.59;;;14.50;nan
23321;BME280;33376;51.306;4.752;2024-01-30T07:10:05;102534.44;;;14.50;nan
23321;BME280;33376;51.306;4.752;2024-01-30T07:12:31;102574.75;;;14.44;nan
23321;BME280;33376;51.306;4.752;2024-01-30T07:14:57;102510.63;;;14.85;nan
23321;BME280;33376;51.306;4.752;2024-01-30T07:17:24;102513.09;;;14.89;nan
23321;BME280;33376;51.306;4.752;2024-01-30T07:19:50;102559.25;;;14.52;nan
23321;BME280;33376;51.306;4.752;2024-01-30T07:22:15;102544.16;;;14.72;nan
23321;BME280;33376;51.306;4.752;2024-01-30T07:24:43;102557.97;;;14.81;nan
23321;BME280;33376;51.306;4.752;2024-01-30T07:27:14;102565.84;;;14.84;nan
23321;BME280;33376;51.306;4.752;2024-01-30T07:29:39;102496.09;;;15.64;nan
23321;BME280;33376;51.306;4.752;2024-01-30T07:32:05;102522.41;;;14.99;nan
23321;BME280;33376;51.306;4.752;2024-01-30T07:34:30;102564.78;;;14.68;nan
23321;BME280;33376;51.306;4.752;2024-01-30T07:36:55;102559.75;;;15.01;nan
23321;BME280;33376;51.306;4.752;2024-01-30T07:39:21;102536.00;;;14.95;nan
23321;BME280;33376;51.306;4.752;2024-01-30T07:41:46;102519.25;;;15.47;nan
23321;BME280;33376;51.306;4.752;2024-01-30T07:44:11;102466.94;;;15.77;nan
23321;BME280;33376;51.306;4.752;2024-01-30T07:46:37;102536.13;;;15.29;nan
23321;BME280;33376;51.306;4.752;2024-01-30T07:49:02;102525.53;;;15.09;nan
23321;BME280;33376;51.306;4.752;2024-01-30T07:51:28;102617.13;;;14.52;nan
23321;BME280;33376;51.306;4.752;2024-01-30T07:53:54;102666.53;;;14.19;nan
23321;BME280;33376;51.306;4.752;2024-01-30T07:56:20;102666.28;;;14.26;nan
23321;BME280;33376;51.306;4.752;2024-01-30T07:58:45;102652.97;;;14.46;nan
23321;BME280;33376;51.306;4.752;2024-01-30T08:01:10;102669.53;;;14.33;nan
23321;BME280;33376;51.306;4.752;2024-01-30T08:03:35;102669.78;;;14.27;nan
23321;BME280;33376;51.306;4.752;2024-01-30T08:06:02;102650.09;;;14.51;nan
23321;BME280;33376;51.306;4.752;2024-01-30T08:08:27;102664.63;;;14.22;nan
23321;BME280;33376;51.306;4.752;2024-01-30T08:10:53;102647.63;;;14.46;nan
23321;BME280;33376;51.306;4.752;2024-01-30T08:13:18;102660.41;;;14.38;nan
23321;BME280;33376;51.306;4.752;2024-01-30T08:15:43;102629.22;;;14.81;nan
23321;BME280;33376;51.306;4.752;2024-01-30T08:18:09;102665.00;;;14.35;nan
23321;BME280;33376;51.306;4.752;2024-01-30T08:20:34;102649.75;;;14.38;nan
23321;BME280;33376;51.306;4.752;2024-01-30T08:23:00;102694.41;;;14.12;nan
23321;BME280;33376;51.306;4.752;2024-01-30T08:25:25;102684.13;;;14.24;nan
23321;BME280;33376;51.306;4.752;2024-01-30T08:27:51;102677.59;;;14.53;nan
23321;BME280;33376;51.306;4.752;2024-01-30T08:30:16;102660.00;;;14.89;nan
23321;BME280;33376;51.306;4.752;2024-01-30T08:32:41;102635.22;;;15.06;nan
23321;BME280;33376;51.306;4.752;2024-01-30T08:35:06;102679.38;;;14.52;nan
23321;BME280;33376;51.306;4.752;2024-01-30T08:37:32;102669.28;;;14.81;nan
23321;BME280;33376;51.306;4.752;2024-01-30T08:39:57;102683.81;;;14.53;nan
23321;BME280;33376;51.306;4.752;2024-01-30T08:42:22;102686.28;;;14.58;nan
23321;BME280;33376;51.306;4.752;2024-01-30T08:44:51;102667.59;;;14.78;nan
23321;BME280;33376;51.306;4.752;2024-01-30T08:47:17;102688.63;;;14.65;nan
23321;BME280;33376;51.306;4.752;2024-01-30T08:49:43;102672.50;;;14.89;nan
23321;BME280;33376;51.306;4.752;2024-01-30T08:52:09;102688.22;;;14.75;nan
23321;BME280;33376;51.306;4.752;2024-01-30T08:54:34;102680.88;;;14.80;nan
23321;BME280;33376;51.306;4.752;2024-01-30T08:57:00;102705.28;;;14.50;nan
23321;BME280;33376;51.306;4.752;2024-01-30T08:59:25;102708.00;;;14.71;nan
23321;BME280;33376;51.306;4.752;2024-01-30T09:01:50;102678.63;;;15.11;nan
23321;BME280;33376;51.306;4.752;2024-01-30T09:04:18;102711.72;;;14.66;nan
23321;BME280;33376;51.306;4.752;2024-01-30T09:06:43;102724.78;;;14.52;nan
23321;BME280;33376;51.306;4.752;2024-01-30T09:09:09;102701.75;;;14.92;nan
23321;BME280;33376;51.306;4.752;2024-01-30T09:11:34;102718.50;;;14.95;nan
23321;BME280;33376;51.306;4.752;2024-01-30T09:14:00;102728.75;;;14.64;nan
23321;BME280;33376;51.306;4.752;2024-01-30T09:16:25;102724.56;;;14.99;nan
23321;BME280;33376;51.306;4.752;2024-01-30T09:18:51;102732.53;;;14.58;nan
23321;BME280;33376;51.306;4.752;2024-01-30T09:21:16;102723.25;;;14.89;nan
23321;BME280;33376;51.306;4.752;2024-01-30T09:23:41;102721.50;;;14.88;nan
23321;BME280;33376;51.306;4.752;2024-01-30T09:26:06;102736.75;;;14.64;nan
23321;BME280;33376;51.306;4.752;2024-01-30T09:28:32;102763.94;;;14.30;nan
23321;BME280;33376;51.306;4.752;2024-01-30T09:30:57;102751.16;;;14.82;nan
23321;BME280;33376;51.306;4.752;2024-01-30T09:33:22;102779.91;;;14.32;nan
23321;BME280;33376;51.306;4.752;2024-01-30T09:35:47;102743.81;;;14.87;nan
23321;BME280;33376;51.306;4.752;2024-01-30T09:38:13;102766.88;;;14.68;nan
23321;BME280;33376;51.306;4.752;2024-01-30T09:40:38;102777.78;;;14.83;nan
23321;BME280;33376;51.306;4.752;2024-01-30T09:43:03;102750.06;;;14.86;nan
23321;BME280;33376;51.306;4.752;2024-01-30T09:45:29;102765.19;;;14.65;nan
23321;BME280;33376;51.306;4.752;2024-01-30T09:47:54;102737.63;;;15.26;nan
23321;BME280;33376;51.306;4.752;2024-01-30T09:50:20;102743.16;;;15.22;nan
23321;BME280;33376;51.306;4.752;2024-01-30T09:52:46;102722.56;;;15.04;nan
23321;BME280;33376;51.306;4.752;2024-01-30T09:55:12;102767.31;;;14.79;nan
23321;BME280;33376;51.306;4.752;2024-01-30T09:57:37;102751.69;;;14.90;nan
23321;BME280;33376;51.306;4.752;2024-01-30T10:00:03;102752.31;;;15.16;nan
23321;BME280;33376;51.306;4.752;2024-01-30T10:02:30;102742.91;;;15.08;nan
23321;BME280;33376;51.306;4.752;2024-01-30T10:04:56;102718.44;;;15.57;nan
23321;BME280;33376;51.306;4.752;2024-01-30T10:07:21;102727.72;;;15.68;nan
23321;BME280;33376;51.306;4.752;2024-01-30T10:09:47;102731.53;;;15.23;nan
23321;BME280;33376;51.306;4.752;2024-01-30T10:12:12;102753.72;;;15.25;nan
23321;BME280;33376;51.306;4.752;2024-01-30T10:14:38;102724.47;;;15.42;nan
23321;BME280;33376;51.306;4.752;2024-01-30T10:17:04;102773.88;;;15.12;nan
23321;BME280;33376;51.306;4.752;2024-01-30T10:19:30;102751.38;;;15.37;nan
23321;BME280;33376;51.306;4.752;2024-01-30T10:21:56;102727.19;;;15.60;nan
23321;BME280;33376;51.306;4.752;2024-01-30T10:24:24;102712.31;;;15.92;nan
23321;BME280;33376;51.306;4.752;2024-01-30T10:26:49;102720.59;;;15.67;nan
23321;BME280;33376;51.306;4.752;2024-01-30T10:29:15;102736.50;;;15.70;nan
23321;BME280;33376;51.306;4.752;2024-01-30T10:31:40;102770.97;;;15.38;nan
23321;BME280;33376;51.306;4.752;2024-01-30T10:34:05;102793.13;;;15.20;nan
23321;BME280;33376;51.306;4.752;2024-01-30T10:36:30;102806.56;;;15.18;nan
23321;BME280;33376;51.306;4.752;2024-01-30T10:39:00;102812.16;;;14.71;nan
23321;BME280;33376;51.306;4.752;2024-01-30T10:41:26;102776.38;;;15.36;nan
23321;BME280;33376;51.306;4.752;2024-01-30T10:44:02;102795.47;;;15.27;nan
23321;BME280;33376;51.306;4.752;2024-01-30T10:46:30;102760.16;;;15.41;nan
23321;BME280;33376;51.306;4.752;2024-01-30T10:48:57;102788.38;;;15.06;nan
23321;BME280;33376;51.306;4.752;2024-01-30T10:51:23;102795.72;;;15.01;nan
23321;BME280;33376;51.306;4.752;2024-01-30T10:53:49;102770.69;;;15.24;nan
23321;BME280;33376;51.306;4.752;2024-01-30T10:56:16;102754.84;;;15.19;nan
23321;BME280;33376;51.306;4.752;2024-01-30T10:58:41;102730.47;;;15.07;nan
23321;BME280;33376;51.306;4.752;2024-01-30T11:01:07;102706.56;;;15.44;nan
23321;BME280;33376;51.306;4.752;2024-01-30T11:03:33;102718.09;;;15.24;nan
23321;BME280;33376;51.306;4.752;2024-01-30T11:06:01;102720.75;;;14.84;nan
23321;BME280;33376;51.306;4.752;2024-01-30T11:08:27;102690.47;;;14.85;nan
23321;BME280;33376;51.306;4.752;2024-01-30T11:10:56;102663.47;;;14.71;nan
23321;BME280;33376;51.306;4.752;2024-01-30T11:13:22;102686.72;;;14.89;nan
23321;BME280;33376;51.306;4.752;2024-01-30T11:15:51;102693.25;;;14.82;nan
23321;BME280;33376;51.306;4.752;2024-01-30T11:18:23;102645.97;;;14.64;nan
23321;BME280;33376;51.306;4.752;2024-01-30T11:20:49;102607.34;;;14.73;nan
23321;BME280;33376;51.306;4.752;2024-01-30T11:23:14;102599.56;;;14.87;nan
23321;BME280;33376;51.306;4.752;2024-01-30T11:25:40;102566.13;;;14.78;nan
23321;BME280;33376;51.306;4.752;2024-01-30T11:28:05;102559.19;;;14.74;nan
23321;BME280;33376;51.306;4.752;2024-01-30T11:30:31;102543.25;;;14.73;nan
23321;BME280;33376;51.306;4.752;2024-01-30T11:33:00;102550.47;;;14.30;nan
23321;BME280;33376;51.306;4.752;2024-01-30T11:35:25;102553.16;;;14.09;nan
23321;BME280;33376;51.306;4.752;2024-01-30T11:37:51;102580.91;;;14.25;nan
23321;BME280;33376;51.306;4.752;2024-01-30T11:40:16;102556.41;;;14.37;nan
23321;BME280;33376;51.306;4.752;2024-01-30T11:42:42;102562.94;;;14.70;nan
23321;BME280;33376;51.306;4.752;2024-01-30T11:45:08;102522.50;;;14.98;nan
23321;BME280;33376;51.306;4.752;2024-01-30T11:47:34;102537.63;;;14.79;nan
23321;BME280;33376;51.306;4.752;2024-01-30T11:50:00;102474.25;;;15.01;nan
23321;BME280;33376;51.306;4.752;2024-01-30T11:52:25;102472.97;;;15.09;nan
23321;BME280;33376;51.306;4.752;2024-01-30T11:54:50;102456.13;;;15.07;nan
23321;BME280;33376;51.306;4.752;2024-01-30T11:57:16;102514.84;;;14.90;nan
23321;BME280;33376;51.306;4.752;2024-01-30T11:59:41;102533.91;;;15.01;nan
23321;BME280;33376;51.306;4.752;2024-01-30T12:02:06;102521.78;;;14.35;nan
23321;BME280;33376;51.306;4.752;2024-01-30T12:04:32;102518.94;;;14.79;nan
23321;BME280;33376;51.306;4.752;2024-01-30T12:06:57;102480.00;;;15.29;nan
23321;BME280;33376;51.306;4.752;2024-01-30T12:09:22;102472.56;;;15.35;nan
23321;BME280;33376;51.306;4.752;2024-01-30T12:11:48;102510.44;;;15.08;nan
23321;BME280;33376;51.306;4.752;2024-01-30T12:14:15;102492.94;;;15.38;nan
23321;BME280;33376;51.306;4.752;2024-01-30T12:16:41;102464.63;;;15.34;nan
23321;BME280;33376;51.306;4.752;2024-01-30T12:19:06;102445.28;;;15.47;nan
23321;BME280;33376;51.306;4.752;2024-01-30T12:21:33;102432.66;;;15.68;nan
23321;BME280;33376;51.306;4.752;2024-01-30T12:23:58;102428.16;;;15.33;nan
23321;BME280;33376;51.306;4.752;2024-01-30T12:26:24;102427.44;;;15.65;nan
23321;BME280;33376;51.306;4.752;2024-01-30T12:28:55;102417.91;;;15.59;nan
23321;BME280;33376;51.306;4.752;2024-01-30T12:31:31;102420.91;;;15.53;nan
23321;BME280;33376;51.306;4.752;2024-01-30T12:33:59;102425.16;;;16.08;nan
23321;BME280;33376;51.306;4.752;2024-01-30T12:36:24;102428.53;;;15.61;nan
23321;BME280;33376;51.306;4.752;2024-01-30T12:38:49;102421.03;;;15.86;nan
23321;BME280;33376;51.306;4.752;2024-01-30T12:41:15;102406.13;;;15.80;nan
23321;BME280;33376;51.306;4.752;2024-01-30T12:43:40;102430.22;;;15.63;nan
23321;BME280;33376;51.306;4.752;2024-01-30T12:46:05;102450.00;;;15.59;nan
23321;BME280;33376;51.306;4.752;2024-01-30T12:48:31;102447.47;;;15.02;nan
23321;BME280;33376;51.306;4.752;2024-01-30T12:50:56;102461.47;;;15.07;nan
23321;BME280;33376;51.306;4.752;2024-01-30T12:53:22;102488.53;;;15.37;nan
23321;BME280;33376;51.306;4.752;2024-01-30T12:55:47;102517.91;;;14.81;nan
23321;BME280;33376;51.306;4.752;2024-01-30T12:58:14;102491.44;;;15.14;nan
23321;BME280;33376;51.306;4.752;2024-01-30T13:00:39;102509.44;;;14.92;nan